Country
Station

 

Weather  for  North Platte, North Platte Regional Airport  -  United States    United States

  
5 °C (41 °F)
    
 
 

Current METAR for North Platte, North Platte Regional Airport is :

KLBF 111853Z AUTO 32012KT 10SM CLR 05/M03 A2994 RMK AO2 SLP166 T00501033

 

This is a report for North Platte, North Platte Regional Airport - United States.
 
The report was made 34 minutes ago, at 18:53 UTC .
The wind was blowing at a speed of 6.2 meters per second (13.8 miles per hour) from northwest (320°).
 
The temperature was 5 °C (41 °F), with a dew-point at -3 °C (27 °F).
The atmospheric pressure was 1014 hPa (29.94 inHg).
The relative humidity was 56.1%.
 
The sky was clear.
 
The overall visibility was 16.1 kilometers (10.0 miles).
 

 
 
 
 

Country :   A   B   C   D   E   F   G   H   I   J   K   L   M   N   O   P   Q   R   S   T   U   V   W   Y   Z

 

Site Info  |  Disclaimer  |  Credits  |  Privacy
Contact us  |  Add to favorites
© 2013-2018 METARs - All rights reserved